Time;durP1;ratioP1;P1;durP2;ratioP2;P2;SDS_P1;SDS_P2;PMS_P1;PMS_P2;Temp;Humidity;BMP_temperature;BMP_pressure;BME280_temperature;BME280_humidity;BME280_pressure;Samples;Min_cycle;Max_cycle;Signal;HPM_P1;HPM_P2
2023/01/26 00:01:54;;;;;;;17.20;12.93;;;4.80;99.90;;;;;;5079090;28;20205;-65
2023/01/26 00:04:22;;;;;;;16.90;13.23;;;5.00;99.90;;;;;;5080153;28;20229;-66
2023/01/26 00:06:49;;;;;;;22.20;14.47;;;5.00;99.90;;;;;;5078031;28;20221;-65
2023/01/26 00:09:16;;;;;;;27.13;17.03;;;4.90;99.90;;;;;;5076243;28;20631;-64
2023/01/26 00:11:42;;;;;;;27.37;16.80;;;4.80;99.90;;;;;;5075145;28;20619;-64
2023/01/26 00:14:09;;;;;;;26.30;18.20;;;4.70;99.90;;;;;;5075182;28;20282;-64
2023/01/26 00:16:36;;;;;;;30.30;18.17;;;4.80;99.90;;;;;;5075222;28;20258;-64
2023/01/26 00:19:03;;;;;;;33.07;19.83;;;4.90;99.90;;;;;;5074902;28;20251;-64
2023/01/26 00:21:31;;;;;;;26.30;17.03;;;4.90;99.90;;;;;;5075120;28;20205;-64
2023/01/26 00:23:59;;;;;;;25.30;16.47;;;5.00;99.90;;;;;;5074950;28;20201;-64
2023/01/26 00:26:27;;;;;;;27.93;17.23;;;4.80;99.90;;;;;;5075722;28;20773;-64
2023/01/26 00:28:54;;;;;;;25.57;16.67;;;4.80;99.90;;;;;;5074934;28;20300;-64
2023/01/26 00:31:23;;;;;;;26.83;17.37;;;4.90;99.90;;;;;;5075339;28;20209;-65
2023/01/26 00:33:50;;;;;;;24.53;15.97;;;4.90;99.90;;;;;;5075051;28;20259;-65
2023/01/26 00:36:17;;;;;;;22.20;15.03;;;4.70;99.90;;;;;;5074257;28;20672;-65
2023/01/26 00:38:46;;;;;;;26.10;15.97;;;4.50;99.90;;;;;;5075048;28;20296;-64
2023/01/26 00:42:05;;;;;;;26.23;17.27;;;4.40;99.90;;;;;;5075269;28;20209;-65
2023/01/26 00:44:00;;;;;;;26.17;16.77;;;4.50;99.90;;;;;;5074032;28;20209;-64
2023/01/26 00:46:26;;;;;;;26.20;15.73;;;4.50;99.90;;;;;;5073918;28;20228;-65
2023/01/26 00:48:53;;;;;;;26.67;16.07;;;4.50;99.90;;;;;;5073988;28;20626;-65
2023/01/26 00:51:20;;;;;;;24.47;14.97;;;4.50;99.90;;;;;;5074950;28;20216;-65
2023/01/26 00:53:48;;;;;;;23.13;14.50;;;4.40;99.90;;;;;;5073942;28;20201;-64
2023/01/26 00:56:14;;;;;;;23.40;15.10;;;4.20;99.90;;;;;;5073931;28;20704;-64
2023/01/26 00:58:43;;;;;;;25.57;15.23;;;4.00;99.90;;;;;;5073914;28;20205;-64
2023/01/26 01:01:10;;;;;;;21.43;14.30;;;3.80;99.90;;;;;;5074493;28;20285;-65
2023/01/26 01:03:36;;;;;;;23.03;13.87;;;3.60;99.90;;;;;;5074493;28;20213;-65
2023/01/26 01:06:03;;;;;;;22.60;14.77;;;3.40;99.90;;;;;;5073889;28;20255;-65
2023/01/26 01:08:30;;;;;;;23.97;14.83;;;3.40;99.90;;;;;;5073515;28;20637;-64
2023/01/26 01:11:05;;;;;;;24.37;14.53;;;3.30;99.90;;;;;;5073780;28;20201;-65
2023/01/26 01:13:32;;;;;;;23.70;14.90;;;3.30;99.90;;;;;;5073974;28;20232;-65
2023/01/26 01:15:59;;;;;;;24.13;14.70;;;3.40;99.90;;;;;;5073445;28;20221;-65
2023/01/26 01:18:25;;;;;;;22.00;14.57;;;3.60;99.90;;;;;;5073379;28;20623;-64
2023/01/26 01:20:52;;;;;;;24.07;15.47;;;3.60;99.90;;;;;;5073216;28;20330;-64
2023/01/26 01:23:19;;;;;;;21.50;14.37;;;3.50;99.90;;;;;;5073749;28;20208;-65
2023/01/26 01:25:46;;;;;;;24.13;15.07;;;3.50;99.90;;;;;;5073269;28;20728;-64
2023/01/26 01:28:14;;;;;;;21.90;14.90;;;3.40;99.90;;;;;;5073172;28;20708;-64
2023/01/26 01:30:40;;;;;;;25.67;14.73;;;3.50;99.90;;;;;;5073354;28;20208;-65
2023/01/26 01:33:07;;;;;;;22.77;14.60;;;3.60;99.90;;;;;;5073202;28;20213;-64
2023/01/26 01:35:34;;;;;;;22.53;14.20;;;3.60;99.90;;;;;;5073368;28;20235;-64
2023/01/26 01:38:02;;;;;;;20.40;13.83;;;3.60;99.90;;;;;;5073807;28;20205;-65
2023/01/26 01:40:29;;;;;;;19.67;12.80;;;3.70;99.90;;;;;;5073712;28;20586;-65
2023/01/26 01:42:55;;;;;;;18.77;12.77;;;3.70;99.90;;;;;;5074223;28;20209;-64
2023/01/26 01:45:42;;;;;;;19.77;12.27;;;3.80;99.90;;;;;;5074381;28;20258;-65
2023/01/26 01:48:17;;;;;;;18.77;12.10;;;3.80;99.90;;;;;;5073587;28;20644;-65
2023/01/26 01:50:44;;;;;;;18.83;12.63;;;3.80;99.90;;;;;;5074670;28;20204;-65
2023/01/26 01:53:15;;;;;;;20.87;13.97;;;3.80;99.90;;;;;;5074543;28;20205;-64
2023/01/26 01:55:42;;;;;;;21.00;12.47;;;3.90;99.90;;;;;;5074313;28;20728;-65
2023/01/26 01:58:09;;;;;;;20.00;12.17;;;4.00;99.90;;;;;;5074608;28;20204;-64
2023/01/26 02:00:37;;;;;;;19.97;13.37;;;3.90;99.90;;;;;;5073614;28;20668;-65
2023/01/26 02:03:14;;;;;;;18.10;12.60;;;3.90;99.90;;;;;;5073931;28;20208;-64
2023/01/26 02:05:48;;;;;;;21.23;12.87;;;3.90;99.90;;;;;;5073222;28;20228;-64
2023/01/26 02:08:18;;;;;;;20.03;13.33;;;3.90;99.90;;;;;;5072881;28;20245;-64
2023/01/26 02:10:49;;;;;;;20.97;12.40;;;4.00;99.90;;;;;;5072682;28;20216;-64
2023/01/26 02:13:17;;;;;;;18.63;12.33;;;4.00;99.90;;;;;;5072632;28;20576;-65
2023/01/26 02:15:46;;;;;;;18.70;12.07;;;3.80;99.90;;;;;;5072600;28;20715;-64
2023/01/26 02:18:13;;;;;;;18.47;12.80;;;3.80;99.90;;;;;;5074303;28;20231;-65
2023/01/26 02:20:45;;;;;;;19.50;12.87;;;3.90;99.90;;;;;;5073890;28;20208;-65
2023/01/26 02:23:22;;;;;;;20.47;12.87;;;3.90;99.90;;;;;;5073102;28;20223;-65
2023/01/26 02:26:01;;;;;;;16.97;11.47;;;3.90;99.90;;;;;;5090787;22;20696;-53
2023/01/26 02:28:28;;;;;;;18.67;12.27;;;3.80;99.90;;;;;;5060292;28;20229;-54
2023/01/26 02:30:56;;;;;;;17.10;10.93;;;3.80;99.90;;;;;;5051975;28;20855;-53
2023/01/26 02:33:26;;;;;;;17.03;11.07;;;3.80;99.90;;;;;;5052080;28;20213;-54
2023/01/26 02:35:53;;;;;;;19.70;11.87;;;3.60;99.90;;;;;;5052299;28;20226;-54
2023/01/26 02:38:23;;;;;;;18.53;12.47;;;3.50;99.90;;;;;;5052468;28;20612;-54
2023/01/26 02:40:54;;;;;;;17.77;12.00;;;3.60;99.90;;;;;;5052007;28;20588;-55
2023/01/26 02:43:23;;;;;;;18.63;12.20;;;3.70;99.90;;;;;;5052136;28;20313;-54
2023/01/26 02:45:50;;;;;;;18.10;12.00;;;3.90;99.90;;;;;;5052071;28;20229;-54
2023/01/26 02:49:45;;;;;;;18.67;11.17;;;4.10;99.90;;;;;;5051991;28;20229;-53
2023/01/26 02:51:04;;;;;;;16.83;10.63;;;4.20;99.90;;;;;;5051690;28;20292;-53
2023/01/26 02:53:31;;;;;;;16.00;10.90;;;4.10;99.90;;;;;;5051949;28;20280;-54
2023/01/26 02:55:57;;;;;;;18.33;9.90;;;4.10;99.90;;;;;;5051915;28;20240;-54
2023/01/26 02:58:25;;;;;;;17.90;11.43;;;4.10;99.90;;;;;;5052051;28;20201;-55
2023/01/26 03:00:52;;;;;;;17.47;11.07;;;4.10;99.90;;;;;;5055047;28;20206;-55
2023/01/26 03:03:22;;;;;;;16.00;10.13;;;4.30;99.90;;;;;;5056127;28;20212;-54
2023/01/26 03:05:49;;;;;;;14.87;10.33;;;4.10;99.90;;;;;;5056033;28;20279;-54
2023/01/26 03:08:16;;;;;;;16.03;10.67;;;3.90;99.90;;;;;;5055602;28;20736;-55
2023/01/26 03:10:43;;;;;;;17.77;10.93;;;3.90;99.90;;;;;;5055720;28;20209;-54
2023/01/26 03:13:09;;;;;;;15.77;10.93;;;3.90;99.90;;;;;;5055446;28;20630;-54
2023/01/26 03:15:46;;;;;;;16.27;10.20;;;4.10;99.90;;;;;;5055709;28;20222;-55
2023/01/26 03:29:12;;;;;;;16.50;11.23;;;3.90;99.90;;;;;;5055493;28;20298;-55
2023/01/26 03:31:40;;;;;;;17.83;11.33;;;4.10;99.90;;;;;;5055548;28;20213;-54
2023/01/26 03:34:07;;;;;;;16.93;10.73;;;4.10;99.90;;;;;;5055535;28;20210;-54
2023/01/26 03:36:34;;;;;;;19.03;11.87;;;4.10;99.90;;;;;;5055502;28;20202;-54
2023/01/26 03:39:00;;;;;;;15.27;10.60;;;4.20;99.90;;;;;;5055237;28;20209;-54
2023/01/26 03:57:55;;;;;;;14.13;9.40;;;3.60;99.90;;;;;;5055173;28;20235;-54
2023/01/26 04:00:21;;;;;;;16.20;10.40;;;3.30;99.90;;;;;;5055016;28;20214;-54
2023/01/26 04:08:21;;;;;;;18.17;10.97;;;3.00;99.90;;;;;;5054926;28;20232;-53
2023/01/26 04:10:49;;;;;;;17.87;11.20;;;3.00;99.90;;;;;;5054378;28;20584;-53
2023/01/26 04:21:32;;;;;;;17.93;11.50;;;2.90;99.90;;;;;;5054846;28;20205;-53
2023/01/26 04:23:59;;;;;;;16.47;10.80;;;3.00;99.90;;;;;;5054489;28;20661;-53
2023/01/26 04:26:33;;;;;;;16.03;10.37;;;3.00;99.90;;;;;;5054290;28;20281;-53
2023/01/26 04:29:00;;;;;;;16.87;10.87;;;3.00;99.90;;;;;;5054520;28;20229;-54
2023/01/26 04:31:27;;;;;;;17.67;11.87;;;2.90;99.90;;;;;;5054588;28;20206;-53
2023/01/26 04:33:55;;;;;;;18.17;11.07;;;2.80;99.90;;;;;;5054513;28;20212;-53
2023/01/26 04:36:22;;;;;;;20.63;11.47;;;2.90;99.90;;;;;;5054462;28;20233;-53
2023/01/26 04:38:49;;;;;;;21.73;12.67;;;3.00;99.90;;;;;;5054328;28;20613;-54
2023/01/26 04:41:16;;;;;;;16.77;11.43;;;3.20;99.90;;;;;;5054407;28;20206;-54
2023/01/26 04:43:43;;;;;;;19.33;12.40;;;3.40;99.90;;;;;;5054356;28;20213;-54
2023/01/26 04:46:10;;;;;;;15.33;10.50;;;3.40;99.90;;;;;;5054174;28;20225;-54
2023/01/26 04:48:37;;;;;;;17.87;11.93;;;3.20;99.90;;;;;;5054190;28;20230;-54
2023/01/26 04:51:07;;;;;;;16.67;10.77;;;3.00;99.90;;;;;;5053938;28;20550;-53
2023/01/26 04:53:34;;;;;;;17.23;11.40;;;3.10;99.90;;;;;;5054128;28;20687;-53
2023/01/26 04:56:01;;;;;;;14.63;10.37;;;3.20;99.90;;;;;;5054246;28;20229;-54
2023/01/26 04:58:27;;;;;;;18.97;11.83;;;3.30;99.90;;;;;;5054341;28;20208;-54
2023/01/26 05:00:56;;;;;;;18.17;10.77;;;3.20;99.90;;;;;;5054053;28;20217;-54
2023/01/26 05:03:24;;;;;;;14.43;9.73;;;3.20;99.90;;;;;;5054232;28;20209;-54
2023/01/26 05:05:53;;;;;;;15.33;9.60;;;3.10;99.90;;;;;;5053762;28;20226;-54
2023/01/26 05:08:21;;;;;;;16.87;11.20;;;3.00;99.90;;;;;;5054174;28;20605;-53
2023/01/26 05:10:50;;;;;;;16.77;11.33;;;2.90;99.90;;;;;;5053855;28;20688;-53
2023/01/26 05:13:16;;;;;;;16.77;10.80;;;2.90;99.90;;;;;;5054097;28;20296;-53
2023/01/26 05:15:43;;;;;;;20.13;11.33;;;2.80;99.90;;;;;;5053890;28;20248;-54
2023/01/26 05:18:10;;;;;;;15.80;10.27;;;2.80;99.90;;;;;;5054018;28;20206;-56
2023/01/26 05:20:37;;;;;;;18.20;11.27;;;2.80;99.90;;;;;;5054041;28;20202;-54
2023/01/26 05:23:04;;;;;;;15.97;10.53;;;2.70;99.90;;;;;;5053769;28;20209;-54
2023/01/26 05:25:32;;;;;;;15.30;9.87;;;2.70;99.90;;;;;;5053765;28;20587;-54
2023/01/26 05:27:59;;;;;;;16.07;10.33;;;2.60;99.90;;;;;;5053730;28;20237;-52
2023/01/26 05:30:25;;;;;;;15.10;10.57;;;2.70;99.90;;;;;;5053885;28;20232;-54
2023/01/26 05:32:52;;;;;;;16.53;10.50;;;2.70;99.90;;;;;;5053471;28;20618;-55
2023/01/26 05:35:19;;;;;;;16.23;10.27;;;2.70;99.90;;;;;;5053847;28;20222;-54
2023/01/26 05:37:45;;;;;;;15.50;10.63;;;2.60;99.90;;;;;;5053769;28;20213;-53
2023/01/26 05:40:13;;;;;;;18.10;10.80;;;2.50;99.90;;;;;;5052955;28;20201;-53
2023/01/26 05:42:42;;;;;;;19.30;12.00;;;2.60;99.90;;;;;;5053123;28;20209;-54
2023/01/26 05:45:10;;;;;;;18.90;11.40;;;2.60;99.90;;;;;;5053187;28;20237;-53
2023/01/26 05:47:37;;;;;;;18.77;12.37;;;2.70;99.90;;;;;;5053101;28;20216;-60
2023/01/26 05:50:04;;;;;;;25.20;12.17;;;2.70;99.90;;;;;;5052900;28;20292;-54
2023/01/26 05:52:31;;;;;;;23.30;12.87;;;2.70;99.90;;;;;;5052886;28;20580;-53
2023/01/26 05:54:58;;;;;;;22.33;13.40;;;2.80;99.90;;;;;;5053317;28;20229;-54
2023/01/26 05:57:25;;;;;;;20.57;13.80;;;3.00;99.90;;;;;;5052829;28;20213;-53
2023/01/26 05:59:53;;;;;;;22.80;13.17;;;3.20;99.90;;;;;;5052310;28;20224;-53
2023/01/26 06:02:20;;;;;;;18.33;11.83;;;3.40;99.90;;;;;;5052648;28;20206;-53
2023/01/26 06:04:47;;;;;;;17.53;11.03;;;3.40;99.90;;;;;;5052762;28;20720;-54
2023/01/26 06:07:14;;;;;;;18.60;11.17;;;3.40;99.90;;;;;;5052538;28;20569;-54
2023/01/26 06:09:41;;;;;;;19.03;11.87;;;3.50;99.90;;;;;;5052160;28;20236;-54
2023/01/26 06:12:14;;;;;;;19.30;12.13;;;3.60;99.90;;;;;;5052534;28;20580;-54
2023/01/26 06:14:40;;;;;;;19.07;12.10;;;3.60;99.90;;;;;;5052243;28;20650;-55
2023/01/26 06:17:09;;;;;;;18.17;11.90;;;3.30;99.90;;;;;;5052754;28;20215;-55
2023/01/26 06:19:36;;;;;;;17.23;11.27;;;3.10;99.90;;;;;;5052372;28;20202;-53
2023/01/26 06:22:03;;;;;;;17.53;11.37;;;2.90;99.90;;;;;;5052369;28;20267;-55
2023/01/26 06:24:30;;;;;;;17.67;11.03;;;2.70;99.90;;;;;;5052389;28;20233;-53
2023/01/26 06:26:56;;;;;;;17.43;10.77;;;2.80;99.90;;;;;;5052309;28;20588;-53
2023/01/26 06:29:23;;;;;;;18.80;11.10;;;2.90;99.90;;;;;;5052064;28;20221;-55
2023/01/26 06:31:50;;;;;;;14.53;9.67;;;3.00;99.90;;;;;;5052365;28;20213;-55
2023/01/26 06:34:18;;;;;;;16.07;10.17;;;3.10;99.90;;;;;;5051655;28;20210;-55
2023/01/26 06:36:45;;;;;;;15.93;10.50;;;3.00;99.90;;;;;;5051965;28;20581;-53
2023/01/26 06:39:13;;;;;;;14.50;10.13;;;2.90;99.90;;;;;;5051971;28;20696;-53
2023/01/26 06:41:42;;;;;;;16.73;11.07;;;2.80;99.90;;;;;;5052893;28;20246;-54
2023/01/26 06:44:09;;;;;;;23.07;14.53;;;2.70;99.90;;;;;;5052540;28;20561;-55
2023/01/26 06:46:37;;;;;;;20.40;11.50;;;2.90;99.90;;;;;;5052071;28;20288;-53
2023/01/26 06:49:03;;;;;;;16.17;10.13;;;3.10;99.90;;;;;;5051848;28;20689;-54
2023/01/26 06:51:47;;;;;;;16.30;11.13;;;3.30;99.90;;;;;;5052366;28;20205;-54
2023/01/26 06:54:14;;;;;;;17.30;11.23;;;3.50;99.90;;;;;;5052394;28;20209;-55
2023/01/26 06:56:41;;;;;;;19.27;11.57;;;3.70;99.90;;;;;;5052077;28;20235;-54
2023/01/26 06:59:09;;;;;;;15.90;11.00;;;3.80;99.90;;;;;;5052288;28;20217;-54
2023/01/26 07:01:41;;;;;;;17.87;10.97;;;3.90;99.90;;;;;;5051816;28;20201;-54
2023/01/26 07:04:08;;;;;;;20.47;11.57;;;4.00;99.90;;;;;;5051795;28;20612;-54
2023/01/26 07:06:35;;;;;;;14.97;10.67;;;3.80;99.90;;;;;;5051720;28;20243;-54
2023/01/26 07:09:03;;;;;;;15.63;11.13;;;3.50;99.90;;;;;;5051898;28;20230;-54
2023/01/26 07:11:31;;;;;;;16.60;10.67;;;3.30;99.90;;;;;;5051570;28;20526;-54
2023/01/26 07:13:57;;;;;;;15.87;11.07;;;3.40;99.90;;;;;;5051673;28;20589;-54
2023/01/26 07:16:24;;;;;;;16.47;10.80;;;3.40;99.90;;;;;;5051567;28;20752;-55
2023/01/26 07:18:53;;;;;;;16.60;10.37;;;3.30;99.90;;;;;;5051474;28;20201;-54
2023/01/26 07:21:21;;;;;;;18.50;11.90;;;3.40;99.90;;;;;;5051553;28;20213;-54
2023/01/26 07:23:49;;;;;;;19.87;11.43;;;3.50;99.90;;;;;;5051572;28;20210;-55
2023/01/26 07:26:18;;;;;;;16.47;10.90;;;3.70;99.90;;;;;;5051361;28;20400;-54
2023/01/26 07:28:44;;;;;;;15.93;10.47;;;3.90;99.90;;;;;;5051402;28;20230;-54
2023/01/26 07:31:12;;;;;;;16.27;10.40;;;4.00;99.90;;;;;;5051386;28;20419;-54
2023/01/26 07:33:39;;;;;;;18.00;10.90;;;4.10;99.90;;;;;;5051555;28;20304;-54
2023/01/26 07:36:06;;;;;;;16.97;11.50;;;4.10;99.90;;;;;;5051374;28;20230;-54
2023/01/26 07:38:34;;;;;;;17.17;11.63;;;4.10;99.90;;;;;;5051642;28;20201;-54
2023/01/26 07:41:06;;;;;;;19.30;11.40;;;4.20;99.90;;;;;;5051457;28;20229;-54
2023/01/26 07:43:34;;;;;;;19.13;11.40;;;4.20;99.90;;;;;;5051518;28;20293;-54
2023/01/26 07:46:01;;;;;;;16.63;11.23;;;4.10;99.90;;;;;;5051375;28;20228;-54
2023/01/26 07:48:29;;;;;;;19.80;11.77;;;3.90;99.90;;;;;;5055143;28;20237;-54
2023/01/26 07:50:59;;;;;;;15.87;11.43;;;3.90;99.90;;;;;;5054920;28;20202;-54
2023/01/26 07:53:28;;;;;;;19.60;12.50;;;4.00;99.90;;;;;;5055643;28;20244;-53
2023/01/26 07:55:55;;;;;;;17.60;10.43;;;4.10;99.90;;;;;;5055021;28;20225;-53
2023/01/26 07:58:22;;;;;;;16.70;11.77;;;4.30;99.90;;;;;;5054899;28;20292;-54
2023/01/26 08:00:50;;;;;;;19.47;11.40;;;4.30;99.90;;;;;;5054568;28;20217;-54
2023/01/26 08:03:17;;;;;;;17.23;11.90;;;4.40;99.90;;;;;;5055056;28;20205;-53
2023/01/26 08:05:43;;;;;;;19.00;12.43;;;4.40;99.90;;;;;;5054629;28;20233;-53
2023/01/26 08:08:10;;;;;;;23.17;13.43;;;4.50;99.90;;;;;;5054680;28;20577;-54
2023/01/26 08:10:37;;;;;;;18.47;11.47;;;4.50;99.90;;;;;;5054525;28;20237;-53
2023/01/26 08:13:03;;;;;;;18.33;11.97;;;4.60;99.90;;;;;;5054527;28;20205;-54
2023/01/26 08:15:30;;;;;;;21.80;13.37;;;4.60;99.90;;;;;;5054706;28;20236;-54
2023/01/26 08:18:02;;;;;;;22.10;12.50;;;4.60;99.90;;;;;;5054730;28;20205;-54
2023/01/26 08:20:29;;;;;;;21.93;12.30;;;4.70;99.90;;;;;;5054348;28;20247;-54
2023/01/26 08:22:56;;;;;;;18.83;12.53;;;4.50;99.90;;;;;;5054327;28;20232;-54
2023/01/26 08:25:22;;;;;;;18.17;11.67;;;4.30;99.90;;;;;;5054664;28;20240;-57
2023/01/26 08:27:49;;;;;;;19.63;11.70;;;4.10;99.90;;;;;;5054375;28;20206;-54
2023/01/26 08:30:17;;;;;;;20.53;12.57;;;3.80;99.90;;;;;;5054270;28;20226;-54
2023/01/26 08:32:43;;;;;;;18.43;12.00;;;3.60;99.90;;;;;;5054473;28;20612;-54
2023/01/26 08:35:11;;;;;;;18.67;12.40;;;3.60;99.90;;;;;;5054116;28;20230;-54
2023/01/26 08:37:38;;;;;;;17.47;10.90;;;3.40;99.90;;;;;;5054385;28;20685;-55
2023/01/26 08:40:06;;;;;;;17.93;11.47;;;3.50;99.90;;;;;;5053867;28;20198;-54
2023/01/26 08:42:33;;;;;;;16.13;10.43;;;3.60;99.90;;;;;;5054489;28;20206;-55
2023/01/26 08:45:00;;;;;;;15.23;10.60;;;3.60;99.90;;;;;;5053996;28;20284;-54
2023/01/26 08:47:26;;;;;;;17.20;11.47;;;3.60;99.90;;;;;;5054315;28;20217;-54
2023/01/26 08:49:53;;;;;;;18.40;11.03;;;3.60;99.90;;;;;;5053507;28;20222;-54
2023/01/26 08:52:21;;;;;;;15.57;10.63;;;3.70;99.90;;;;;;5053801;28;20209;-54
2023/01/26 08:54:48;;;;;;;18.07;11.80;;;3.90;99.90;;;;;;5053497;28;20601;-54
2023/01/26 08:57:15;;;;;;;14.93;10.33;;;4.20;99.90;;;;;;5053426;28;20209;-55
2023/01/26 08:59:42;;;;;;;13.83;9.73;;;4.40;99.90;;;;;;5053830;28;20205;-54
2023/01/26 09:02:09;;;;;;;17.73;10.00;;;4.60;99.90;;;;;;5053473;28;20213;-55
2023/01/26 09:04:36;;;;;;;14.57;10.30;;;4.80;99.90;;;;;;5054081;28;20233;-55
2023/01/26 09:07:03;;;;;;;16.50;10.70;;;4.80;99.90;;;;;;5053945;28;20619;-55
2023/01/26 09:09:31;;;;;;;14.60;10.20;;;4.90;99.90;;;;;;5053687;28;20689;-54
2023/01/26 09:11:58;;;;;;;13.03;9.53;;;4.90;99.90;;;;;;5053884;28;20689;-55
2023/01/26 09:14:26;;;;;;;14.77;10.23;;;5.00;99.90;;;;;;5053924;28;20407;-55
2023/01/26 09:16:53;;;;;;;13.77;9.80;;;4.90;99.90;;;;;;5053607;28;20390;-55
2023/01/26 09:19:20;;;;;;;16.23;10.87;;;4.90;99.90;;;;;;5053669;28;20209;-55
2023/01/26 09:21:46;;;;;;;16.37;10.73;;;5.00;99.90;;;;;;5053315;28;20288;-55
2023/01/26 09:24:13;;;;;;;13.30;9.40;;;5.10;99.90;;;;;;5053387;28;20205;-55
2023/01/26 09:26:41;;;;;;;12.47;8.23;;;5.20;99.90;;;;;;5053785;28;20611;-55
2023/01/26 09:29:08;;;;;;;11.97;8.77;;;5.10;99.90;;;;;;5053353;28;20221;-56
2023/01/26 09:31:34;;;;;;;12.70;7.70;;;4.90;99.90;;;;;;5053466;28;20212;-55
2023/01/26 09:34:01;;;;;;;12.63;8.23;;;4.80;99.90;;;;;;5053290;28;20209;-56
2023/01/26 09:36:28;;;;;;;12.13;8.37;;;4.70;99.90;;;;;;5053096;28;20566;-54
2023/01/26 09:38:55;;;;;;;11.00;7.30;;;4.60;99.90;;;;;;5053361;28;20205;-56
2023/01/26 09:41:38;;;;;;;10.37;7.40;;;4.50;99.90;;;;;;5053098;28;20650;-55
2023/01/26 09:44:09;;;;;;;11.30;7.43;;;4.40;99.90;;;;;;5053020;28;20673;-55
2023/01/26 09:46:50;;;;;;;12.93;8.20;;;4.50;99.90;;;;;;5053028;28;20206;-55
2023/01/26 09:49:22;;;;;;;11.87;7.70;;;4.50;99.90;;;;;;5053117;28;20248;-55
2023/01/26 09:51:56;;;;;;;11.07;7.63;;;4.60;99.90;;;;;;5052677;28;20214;-55
2023/01/26 09:54:30;;;;;;;12.93;7.90;;;4.50;99.90;;;;;;5053493;28;20229;-55
2023/01/26 09:57:01;;;;;;;13.07;8.83;;;4.50;99.90;;;;;;5053262;28;20205;-55
2023/01/26 09:59:34;;;;;;;14.80;8.17;;;4.40;99.90;;;;;;5052971;28;20201;-55
2023/01/26 10:02:15;;;;;;;13.10;8.40;;;4.00;99.90;;;;;;5052923;28;20216;-55
2023/01/26 10:04:46;;;;;;;16.30;9.10;;;4.10;99.90;;;;;;5052449;28;20708;-55
2023/01/26 10:07:14;;;;;;;11.90;8.17;;;4.10;99.90;;;;;;5053314;28;20567;-55
2023/01/26 10:09:45;;;;;;;12.57;7.33;;;4.10;99.90;;;;;;5051558;28;20628;-55
2023/01/26 10:12:18;;;;;;;11.20;8.20;;;4.40;99.90;;;;;;5052787;28;20214;-55
2023/01/26 10:14:52;;;;;;;15.57;8.50;;;4.40;99.90;;;;;;5052614;28;20240;-57
2023/01/26 10:17:23;;;;;;;12.80;8.20;;;4.60;99.90;;;;;;5052460;28;20740;-56
2023/01/26 10:19:55;;;;;;;13.47;8.53;;;4.50;99.90;;;;;;5052320;28;20198;-55
2023/01/26 10:22:30;;;;;;;16.20;9.20;;;4.30;99.90;;;;;;5052344;28;20586;-56
2023/01/26 10:24:59;;;;;;;15.13;9.27;;;4.10;99.90;;;;;;5052056;28;20729;-56
2023/01/26 10:27:27;;;;;;;16.30;9.97;;;3.90;99.90;;;;;;5052406;28;20205;-55
2023/01/26 10:29:55;;;;;;;14.10;9.10;;;3.70;99.90;;;;;;5051983;28;20221;-56
2023/01/26 10:32:22;;;;;;;15.00;9.87;;;3.60;99.90;;;;;;5053004;28;20205;-56
2023/01/26 10:34:52;;;;;;;14.73;9.40;;;3.40;99.90;;;;;;5052472;28;20233;-55
2023/01/26 10:37:23;;;;;;;14.50;9.70;;;3.30;99.90;;;;;;5052538;28;20218;-55
2023/01/26 10:39:58;;;;;;;15.53;9.93;;;3.10;99.90;;;;;;5052073;28;20205;-55
2023/01/26 10:42:28;;;;;;;15.43;10.27;;;3.00;99.90;;;;;;5052079;28;20744;-54
2023/01/26 10:44:58;;;;;;;15.33;10.50;;;3.00;99.90;;;;;;5052420;28;20275;-55
2023/01/26 10:47:24;;;;;;;15.57;9.87;;;3.10;99.90;;;;;;5051917;28;20212;-56
2023/01/26 10:50:12;;;;;;;14.37;9.73;;;3.00;99.90;;;;;;5052570;28;20704;-57
2023/01/26 10:52:55;;;;;;;13.97;9.43;;;3.00;99.90;;;;;;5052508;28;20201;-56
2023/01/26 10:55:22;;;;;;;14.43;9.90;;;3.20;99.90;;;;;;5052085;28;20221;-55
2023/01/26 10:57:49;;;;;;;16.53;9.67;;;3.20;99.90;;;;;;5052183;28;20685;-56
2023/01/26 11:00:24;;;;;;;16.30;9.73;;;3.20;99.90;;;;;;5052221;28;20215;-56
2023/01/26 11:02:54;;;;;;;16.30;9.53;;;3.30;99.90;;;;;;5052211;28;20208;-56
2023/01/26 11:05:24;;;;;;;16.10;9.37;;;3.20;99.90;;;;;;5052702;28;20225;-58
2023/01/26 11:07:57;;;;;;;13.30;9.10;;;3.00;99.90;;;;;;5052244;28;20618;-56
2023/01/26 11:10:27;;;;;;;15.03;9.53;;;3.00;99.90;;;;;;5052727;28;20221;-55
2023/01/26 11:13:18;;;;;;;15.10;10.60;;;2.90;99.90;;;;;;5052367;28;20209;-55
2023/01/26 11:15:48;;;;;;;15.53;10.90;;;2.90;99.90;;;;;;5052530;28;20229;-58
2023/01/26 11:18:32;;;;;;;16.13;10.90;;;3.10;99.90;;;;;;5052090;28;20206;-54
2023/01/26 11:21:03;;;;;;;18.00;11.23;;;3.30;99.90;;;;;;5054020;28;20209;-55
2023/01/26 11:23:49;;;;;;;14.93;9.73;;;3.60;99.90;;;;;;5056482;28;20300;-55
2023/01/26 11:26:45;;;;;;;17.27;12.30;;;3.70;99.90;;;;;;5056156;28;20233;-57
2023/01/26 11:29:39;;;;;;;16.03;9.87;;;3.70;99.90;;;;;;5056117;28;20198;-56
2023/01/26 11:32:17;;;;;;;17.87;10.60;;;3.80;99.90;;;;;;5055685;28;20213;-56
2023/01/26 11:34:51;;;;;;;16.27;10.53;;;4.00;99.90;;;;;;5055595;28;20315;-56
2023/01/26 11:37:39;;;;;;;17.10;11.00;;;4.10;99.90;;;;;;5055797;28;20217;-55
2023/01/26 11:40:30;;;;;;;16.67;10.87;;;4.10;99.90;;;;;;5056701;28;20201;-56
2023/01/26 11:43:23;;;;;;;16.83;10.43;;;4.40;99.90;;;;;;5053494;28;20265;-55
2023/01/26 11:46:14;;;;;;;17.37;10.30;;;4.60;99.90;;;;;;5055436;28;20234;-56
2023/01/26 11:48:52;;;;;;;17.83;11.03;;;4.90;99.90;;;;;;5055203;28;20213;-55
2023/01/26 11:51:29;;;;;;;16.00;9.90;;;5.00;99.90;;;;;;5055015;28;20700;-56
2023/01/26 11:54:18;;;;;;;17.40;11.17;;;5.10;99.90;;;;;;5055312;28;20209;-55
2023/01/26 11:56:49;;;;;;;16.23;10.17;;;5.00;99.90;;;;;;5055212;28;20209;-55
2023/01/26 11:59:20;;;;;;;16.43;10.53;;;4.70;99.90;;;;;;5055595;28;20206;-56
2023/01/26 12:01:52;;;;;;;17.53;10.43;;;4.60;99.90;;;;;;5055579;28;20202;-55
2023/01/26 12:04:21;;;;;;;18.17;11.00;;;4.30;99.90;;;;;;5054940;28;20209;-55
2023/01/26 12:06:54;;;;;;;17.40;10.67;;;4.10;99.90;;;;;;5055317;28;20232;-56
2023/01/26 12:09:25;;;;;;;15.83;10.70;;;4.10;99.90;;;;;;5055541;28;20205;-57
2023/01/26 12:11:58;;;;;;;15.53;10.47;;;3.90;99.90;;;;;;5055166;28;20226;-56
2023/01/26 12:14:28;;;;;;;16.23;10.07;;;3.70;99.90;;;;;;5055425;28;20676;-57
2023/01/26 12:17:15;;;;;;;16.27;10.03;;;3.60;99.90;;;;;;5055182;28;20206;-55
2023/01/26 12:19:51;;;;;;;17.00;9.03;;;3.50;99.90;;;;;;5042058;28;20208;-56
2023/01/26 12:22:22;;;;;;;14.90;9.90;;;3.40;99.90;;;;;;5054648;28;20615;-57
2023/01/26 12:24:53;;;;;;;14.50;9.43;;;3.30;99.90;;;;;;5054640;28;20240;-56
2023/01/26 12:27:25;;;;;;;14.60;9.37;;;3.40;99.90;;;;;;5054845;28;20221;-56
2023/01/26 12:29:57;;;;;;;14.17;9.07;;;3.40;99.90;;;;;;5054789;28;20285;-56
2023/01/26 12:32:24;;;;;;;17.97;9.70;;;3.30;99.90;;;;;;5054394;28;20480;-57
2023/01/26 12:34:52;;;;;;;14.90;9.47;;;3.20;99.90;;;;;;5055571;28;20228;-54
2023/01/26 12:37:33;;;;;;;16.20;10.20;;;3.20;99.90;;;;;;5054899;28;20213;-56
2023/01/26 12:40:12;;;;;;;15.20;9.90;;;3.30;99.90;;;;;;5054704;28;20217;-55
2023/01/26 12:42:45;;;;;;;14.30;9.50;;;3.40;99.90;;;;;;5054645;28;20216;-55
2023/01/26 12:45:17;;;;;;;16.40;11.17;;;3.30;99.90;;;;;;5054554;28;20230;-55
2023/01/26 12:47:49;;;;;;;14.30;9.67;;;3.20;99.90;;;;;;5054532;28;20209;-55
2023/01/26 12:50:26;;;;;;;16.23;10.20;;;3.30;99.90;;;;;;5054728;28;20256;-55
2023/01/26 12:52:57;;;;;;;15.07;9.53;;;3.30;99.90;;;;;;5055845;28;20209;-55
2023/01/26 12:55:29;;;;;;;16.47;10.03;;;3.20;99.90;;;;;;5055032;28;20225;-55
2023/01/26 12:57:58;;;;;;;14.20;9.37;;;3.20;99.90;;;;;;5055138;28;20209;-55
2023/01/26 13:00:30;;;;;;;14.30;9.53;;;3.10;99.90;;;;;;5054355;28;20205;-55
2023/01/26 13:03:02;;;;;;;15.03;9.40;;;3.10;99.90;;;;;;5054162;28;20697;-55
2023/01/26 13:05:32;;;;;;;16.00;9.27;;;3.00;99.90;;;;;;5054596;28;20230;-55
2023/01/26 13:08:24;;;;;;;15.07;9.00;;;3.00;99.90;;;;;;5054301;28;20676;-55
2023/01/26 13:10:51;;;;;;;18.50;9.03;;;2.90;99.90;;;;;;5053725;28;20236;-55
2023/01/26 13:13:30;;;;;;;16.23;9.10;;;2.80;99.90;;;;;;5053797;28;20673;-55
2023/01/26 13:16:31;;;;;;;18.10;8.80;;;3.00;99.90;;;;;;5054698;28;20643;-55
2023/01/26 13:18:59;;;;;;;14.00;8.77;;;3.10;99.90;;;;;;5054535;28;20212;-56
2023/01/26 13:21:28;;;;;;;15.33;8.80;;;3.00;99.90;;;;;;5054075;28;20297;-59
2023/01/26 13:23:55;;;;;;;14.93;8.80;;;3.10;99.90;;;;;;5054113;28;20213;-57
2023/01/26 13:26:43;;;;;;;16.87;8.43;;;3.20;99.90;;;;;;5054131;28;20324;-56
2023/01/26 13:29:30;;;;;;;13.40;8.40;;;3.50;99.90;;;;;;5053489;28;20212;-56
2023/01/26 13:31:59;;;;;;;13.70;7.83;;;3.70;99.90;;;;;;5053701;28;20689;-56
2023/01/26 13:34:29;;;;;;;12.70;8.53;;;3.60;99.90;;;;;;5053494;28;20221;-55
2023/01/26 13:37:04;;;;;;;13.53;8.33;;;3.70;99.90;;;;;;5053222;28;20217;-56